sensor_id;sensor_type;location;lat;lon;timestamp;P1;durP1;ratioP1;P2;durP2;ratioP2
19537;SDS011;9914;51.008;4.300;2023-07-16T00:01:59;1999.90;;;999.90;;
19537;SDS011;9914;51.008;4.300;2023-07-16T00:04:25;1999.90;;;999.90;;
19537;SDS011;9914;51.008;4.300;2023-07-16T00:06:51;1999.90;;;999.90;;
19537;SDS011;9914;51.008;4.300;2023-07-16T00:09:16;1600.13;;;919.80;;
19537;SDS011;9914;51.008;4.300;2023-07-16T00:11:42;787.87;;;747.67;;
19537;SDS011;9914;51.008;4.300;2023-07-16T00:14:09;793.63;;;753.70;;
19537;SDS011;9914;51.008;4.300;2023-07-16T00:16:35;809.33;;;765.73;;
19537;SDS011;9914;51.008;4.300;2023-07-16T00:19:01;797.90;;;756.90;;
19537;SDS011;9914;51.008;4.300;2023-07-16T00:21:26;812.67;;;770.83;;
19537;SDS011;9914;51.008;4.300;2023-07-16T00:23:52;831.60;;;787.77;;
19537;SDS011;9914;51.008;4.300;2023-07-16T00:26:17;872.63;;;824.67;;
19537;SDS011;9914;51.008;4.300;2023-07-16T00:28:43;927.93;;;873.07;;
19537;SDS011;9914;51.008;4.300;2023-07-16T00:31:10;951.27;;;893.53;;
19537;SDS011;9914;51.008;4.300;2023-07-16T00:33:35;1048.33;;;973.67;;
19537;SDS011;9914;51.008;4.300;2023-07-16T00:36:01;1097.50;;;999.90;;
19537;SDS011;9914;51.008;4.300;2023-07-16T00:38:26;1148.60;;;999.90;;
19537;SDS011;9914;51.008;4.300;2023-07-16T00:40:52;1211.73;;;999.90;;
19537;SDS011;9914;51.008;4.300;2023-07-16T00:43:18;1244.87;;;999.90;;
19537;SDS011;9914;51.008;4.300;2023-07-16T00:45:44;1271.17;;;999.90;;
19537;SDS011;9914;51.008;4.300;2023-07-16T00:48:11;1298.50;;;999.90;;
19537;SDS011;9914;51.008;4.300;2023-07-16T00:50:37;1351.57;;;999.90;;
19537;SDS011;9914;51.008;4.300;2023-07-16T00:53:07;1337.60;;;999.90;;
19537;SDS011;9914;51.008;4.300;2023-07-16T00:55:34;1310.90;;;999.90;;
19537;SDS011;9914;51.008;4.300;2023-07-16T00:58:02;1274.10;;;999.90;;
19537;SDS011;9914;51.008;4.300;2023-07-16T01:00:30;1263.80;;;999.90;;
19537;SDS011;9914;51.008;4.300;2023-07-16T01:02:57;1248.47;;;999.90;;
19537;SDS011;9914;51.008;4.300;2023-07-16T01:05:23;1241.77;;;999.90;;
19537;SDS011;9914;51.008;4.300;2023-07-16T01:07:54;1301.90;;;999.90;;
19537;SDS011;9914;51.008;4.300;2023-07-16T01:10:31;1327.13;;;999.90;;
19537;SDS011;9914;51.008;4.300;2023-07-16T01:12:58;1351.30;;;999.90;;
19537;SDS011;9914;51.008;4.300;2023-07-16T01:15:24;1314.87;;;999.90;;
19537;SDS011;9914;51.008;4.300;2023-07-16T01:17:50;1177.03;;;965.57;;
19537;SDS011;9914;51.008;4.300;2023-07-16T01:20:15;1233.17;;;988.07;;
19537;SDS011;9914;51.008;4.300;2023-07-16T01:30:52;1135.40;;;920.90;;
19537;SDS011;9914;51.008;4.300;2023-07-16T01:33:20;1207.67;;;997.73;;
19537;SDS011;9914;51.008;4.300;2023-07-16T01:35:46;1189.90;;;999.90;;
19537;SDS011;9914;51.008;4.300;2023-07-16T01:38:13;1151.97;;;999.90;;
19537;SDS011;9914;51.008;4.300;2023-07-16T01:40:41;1130.60;;;999.90;;
19537;SDS011;9914;51.008;4.300;2023-07-16T01:43:07;1178.27;;;999.90;;
19537;SDS011;9914;51.008;4.300;2023-07-16T01:45:32;1726.80;;;999.90;;
19537;SDS011;9914;51.008;4.300;2023-07-16T01:50:46;1999.90;;;999.90;;
19537;SDS011;9914;51.008;4.300;2023-07-16T01:53:11;1999.90;;;999.90;;
19537;SDS011;9914;51.008;4.300;2023-07-16T01:55:37;1999.90;;;999.90;;
19537;SDS011;9914;51.008;4.300;2023-07-16T01:58:02;1999.90;;;999.90;;
19537;SDS011;9914;51.008;4.300;2023-07-16T02:00:28;1999.90;;;999.90;;
19537;SDS011;9914;51.008;4.300;2023-07-16T02:02:54;1999.90;;;999.90;;
19537;SDS011;9914;51.008;4.300;2023-07-16T02:05:19;1999.90;;;999.90;;
19537;SDS011;9914;51.008;4.300;2023-07-16T02:07:45;1999.90;;;999.90;;
19537;SDS011;9914;51.008;4.300;2023-07-16T02:10:10;1999.90;;;999.90;;
19537;SDS011;9914;51.008;4.300;2023-07-16T02:12:36;1999.90;;;999.90;;
19537;SDS011;9914;51.008;4.300;2023-07-16T02:15:02;1999.90;;;999.90;;
19537;SDS011;9914;51.008;4.300;2023-07-16T02:17:28;1999.90;;;999.90;;
19537;SDS011;9914;51.008;4.300;2023-07-16T02:19:53;1999.90;;;999.90;;
19537;SDS011;9914;51.008;4.300;2023-07-16T02:22:19;1999.90;;;999.90;;
19537;SDS011;9914;51.008;4.300;2023-07-16T02:24:45;1999.90;;;999.90;;
19537;SDS011;9914;51.008;4.300;2023-07-16T02:27:10;1999.90;;;999.90;;
19537;SDS011;9914;51.008;4.300;2023-07-16T02:29:36;1999.90;;;999.90;;
19537;SDS011;9914;51.008;4.300;2023-07-16T02:32:01;1999.90;;;999.90;;
19537;SDS011;9914;51.008;4.300;2023-07-16T02:34:27;1999.90;;;999.90;;
19537;SDS011;9914;51.008;4.300;2023-07-16T02:36:53;1999.90;;;999.90;;
19537;SDS011;9914;51.008;4.300;2023-07-16T02:39:18;1999.90;;;999.90;;
19537;SDS011;9914;51.008;4.300;2023-07-16T02:41:44;1999.90;;;999.90;;
19537;SDS011;9914;51.008;4.300;2023-07-16T02:44:10;1999.90;;;999.90;;
19537;SDS011;9914;51.008;4.300;2023-07-16T02:46:35;1999.90;;;999.90;;
19537;SDS011;9914;51.008;4.300;2023-07-16T02:49:02;1999.90;;;999.90;;
19537;SDS011;9914;51.008;4.300;2023-07-16T02:51:28;1999.90;;;999.90;;
19537;SDS011;9914;51.008;4.300;2023-07-16T02:53:53;1999.90;;;999.90;;
19537;SDS011;9914;51.008;4.300;2023-07-16T02:56:19;1999.90;;;999.90;;
19537;SDS011;9914;51.008;4.300;2023-07-16T02:58:44;1999.90;;;999.90;;
19537;SDS011;9914;51.008;4.300;2023-07-16T03:01:11;1999.90;;;999.90;;
19537;SDS011;9914;51.008;4.300;2023-07-16T03:03:37;1999.90;;;999.90;;
19537;SDS011;9914;51.008;4.300;2023-07-16T03:06:03;1999.90;;;999.90;;
19537;SDS011;9914;51.008;4.300;2023-07-16T03:08:28;1999.90;;;999.90;;
19537;SDS011;9914;51.008;4.300;2023-07-16T03:10:56;1999.90;;;999.90;;
19537;SDS011;9914;51.008;4.300;2023-07-16T03:13:22;1999.90;;;999.90;;
19537;SDS011;9914;51.008;4.300;2023-07-16T03:15:48;1999.90;;;999.90;;
19537;SDS011;9914;51.008;4.300;2023-07-16T03:18:13;1999.90;;;999.90;;
19537;SDS011;9914;51.008;4.300;2023-07-16T03:20:39;1999.90;;;999.90;;
19537;SDS011;9914;51.008;4.300;2023-07-16T03:23:05;1999.90;;;999.90;;
19537;SDS011;9914;51.008;4.300;2023-07-16T03:25:30;1999.90;;;999.90;;
19537;SDS011;9914;51.008;4.300;2023-07-16T03:27:56;1999.90;;;999.90;;
19537;SDS011;9914;51.008;4.300;2023-07-16T03:30:21;1999.90;;;999.90;;
19537;SDS011;9914;51.008;4.300;2023-07-16T03:32:47;1999.90;;;999.90;;
19537;SDS011;9914;51.008;4.300;2023-07-16T03:35:13;1999.90;;;999.90;;
19537;SDS011;9914;51.008;4.300;2023-07-16T03:37:38;1999.90;;;999.90;;
19537;SDS011;9914;51.008;4.300;2023-07-16T03:40:14;1999.90;;;999.90;;
19537;SDS011;9914;51.008;4.300;2023-07-16T03:42:41;1999.90;;;999.90;;
19537;SDS011;9914;51.008;4.300;2023-07-16T03:45:07;1999.90;;;999.90;;
19537;SDS011;9914;51.008;4.300;2023-07-16T03:47:33;1999.90;;;999.90;;
19537;SDS011;9914;51.008;4.300;2023-07-16T03:49:59;1999.90;;;999.90;;
19537;SDS011;9914;51.008;4.300;2023-07-16T03:52:24;1999.90;;;999.90;;
19537;SDS011;9914;51.008;4.300;2023-07-16T03:54:51;1999.90;;;999.90;;
19537;SDS011;9914;51.008;4.300;2023-07-16T03:57:17;1999.90;;;999.90;;
19537;SDS011;9914;51.008;4.300;2023-07-16T03:59:43;1999.90;;;999.90;;
19537;SDS011;9914;51.008;4.300;2023-07-16T04:02:08;1999.90;;;999.90;;
19537;SDS011;9914;51.008;4.300;2023-07-16T04:04:34;1999.90;;;999.90;;
19537;SDS011;9914;51.008;4.300;2023-07-16T04:06:59;1999.90;;;999.90;;
19537;SDS011;9914;51.008;4.300;2023-07-16T04:09:25;1999.90;;;999.90;;
19537;SDS011;9914;51.008;4.300;2023-07-16T04:11:51;1999.90;;;999.90;;
19537;SDS011;9914;51.008;4.300;2023-07-16T04:14:16;1999.90;;;999.90;;
19537;SDS011;9914;51.008;4.300;2023-07-16T04:16:42;1999.90;;;999.90;;
19537;SDS011;9914;51.008;4.300;2023-07-16T04:19:11;1999.90;;;999.90;;
19537;SDS011;9914;51.008;4.300;2023-07-16T04:21:36;1999.90;;;999.90;;
19537;SDS011;9914;51.008;4.300;2023-07-16T04:24:02;1999.90;;;999.90;;
19537;SDS011;9914;51.008;4.300;2023-07-16T04:26:28;1999.90;;;999.90;;
19537;SDS011;9914;51.008;4.300;2023-07-16T04:28:54;1999.90;;;999.90;;
19537;SDS011;9914;51.008;4.300;2023-07-16T04:31:19;1999.90;;;999.90;;
19537;SDS011;9914;51.008;4.300;2023-07-16T04:33:45;1999.90;;;999.90;;
19537;SDS011;9914;51.008;4.300;2023-07-16T04:36:11;1999.90;;;999.90;;
19537;SDS011;9914;51.008;4.300;2023-07-16T04:38:36;1999.90;;;999.90;;
19537;SDS011;9914;51.008;4.300;2023-07-16T04:41:02;1999.90;;;999.90;;
19537;SDS011;9914;51.008;4.300;2023-07-16T04:43:27;1999.90;;;999.90;;
19537;SDS011;9914;51.008;4.300;2023-07-16T04:45:53;1999.90;;;999.90;;
19537;SDS011;9914;51.008;4.300;2023-07-16T04:48:20;1999.90;;;999.90;;
19537;SDS011;9914;51.008;4.300;2023-07-16T04:50:45;1999.90;;;999.90;;
19537;SDS011;9914;51.008;4.300;2023-07-16T04:53:11;1999.90;;;999.90;;
19537;SDS011;9914;51.008;4.300;2023-07-16T04:55:37;1999.90;;;999.90;;
19537;SDS011;9914;51.008;4.300;2023-07-16T04:58:04;1999.90;;;999.90;;
19537;SDS011;9914;51.008;4.300;2023-07-16T05:00:31;1999.90;;;999.90;;
19537;SDS011;9914;51.008;4.300;2023-07-16T05:02:58;1999.90;;;999.90;;
19537;SDS011;9914;51.008;4.300;2023-07-16T05:05:24;1999.90;;;999.90;;
19537;SDS011;9914;51.008;4.300;2023-07-16T05:07:49;1999.90;;;999.90;;
19537;SDS011;9914;51.008;4.300;2023-07-16T05:10:15;1999.90;;;999.90;;
19537;SDS011;9914;51.008;4.300;2023-07-16T05:12:41;1999.90;;;999.90;;
19537;SDS011;9914;51.008;4.300;2023-07-16T05:15:06;1999.90;;;999.90;;
19537;SDS011;9914;51.008;4.300;2023-07-16T05:17:32;1999.90;;;999.90;;
19537;SDS011;9914;51.008;4.300;2023-07-16T05:19:58;1999.90;;;999.90;;
19537;SDS011;9914;51.008;4.300;2023-07-16T05:22:24;1999.90;;;999.90;;
19537;SDS011;9914;51.008;4.300;2023-07-16T05:24:49;1999.90;;;999.90;;
19537;SDS011;9914;51.008;4.300;2023-07-16T05:27:15;1999.90;;;999.90;;
19537;SDS011;9914;51.008;4.300;2023-07-16T05:29:41;1999.90;;;999.90;;
19537;SDS011;9914;51.008;4.300;2023-07-16T05:32:07;1999.90;;;999.90;;
19537;SDS011;9914;51.008;4.300;2023-07-16T05:34:33;1999.90;;;999.90;;
19537;SDS011;9914;51.008;4.300;2023-07-16T05:36:59;1337.43;;;669.40;;
19537;SDS011;9914;51.008;4.300;2023-07-16T05:39:24;1999.90;;;999.90;;
19537;SDS011;9914;51.008;4.300;2023-07-16T05:41:50;1999.90;;;999.90;;
19537;SDS011;9914;51.008;4.300;2023-07-16T05:44:16;1999.90;;;999.90;;
19537;SDS011;9914;51.008;4.300;2023-07-16T05:46:42;1999.90;;;999.90;;
19537;SDS011;9914;51.008;4.300;2023-07-16T05:49:07;1999.90;;;999.90;;
19537;SDS011;9914;51.008;4.300;2023-07-16T05:51:33;1999.90;;;999.90;;
19537;SDS011;9914;51.008;4.300;2023-07-16T05:53:58;1999.90;;;999.90;;
19537;SDS011;9914;51.008;4.300;2023-07-16T05:56:24;1999.90;;;999.90;;
19537;SDS011;9914;51.008;4.300;2023-07-16T05:58:50;1999.90;;;999.90;;
19537;SDS011;9914;51.008;4.300;2023-07-16T06:01:15;1999.90;;;999.90;;
19537;SDS011;9914;51.008;4.300;2023-07-16T06:03:41;1999.90;;;999.90;;
19537;SDS011;9914;51.008;4.300;2023-07-16T06:06:09;1999.90;;;999.90;;
19537;SDS011;9914;51.008;4.300;2023-07-16T06:08:35;1999.90;;;999.90;;
19537;SDS011;9914;51.008;4.300;2023-07-16T06:11:01;1999.90;;;999.90;;
19537;SDS011;9914;51.008;4.300;2023-07-16T06:13:26;1999.90;;;999.90;;
19537;SDS011;9914;51.008;4.300;2023-07-16T06:15:52;1999.90;;;999.90;;
19537;SDS011;9914;51.008;4.300;2023-07-16T06:18:18;1999.90;;;999.90;;
19537;SDS011;9914;51.008;4.300;2023-07-16T06:20:44;1999.90;;;999.90;;
19537;SDS011;9914;51.008;4.300;2023-07-16T06:23:10;734.53;;;395.10;;
19537;SDS011;9914;51.008;4.300;2023-07-16T06:25:41;1999.90;;;999.90;;
19537;SDS011;9914;51.008;4.300;2023-07-16T06:28:11;1999.90;;;999.90;;
19537;SDS011;9914;51.008;4.300;2023-07-16T06:30:37;1999.90;;;999.90;;
19537;SDS011;9914;51.008;4.300;2023-07-16T06:33:04;1999.90;;;999.90;;
19537;SDS011;9914;51.008;4.300;2023-07-16T06:35:29;1999.90;;;999.90;;
19537;SDS011;9914;51.008;4.300;2023-07-16T06:37:55;1999.90;;;999.90;;
19537;SDS011;9914;51.008;4.300;2023-07-16T06:40:21;1999.90;;;999.90;;
19537;SDS011;9914;51.008;4.300;2023-07-16T06:42:46;1999.90;;;999.90;;
19537;SDS011;9914;51.008;4.300;2023-07-16T06:45:12;1999.90;;;999.90;;
19537;SDS011;9914;51.008;4.300;2023-07-16T06:47:37;1999.90;;;999.90;;
19537;SDS011;9914;51.008;4.300;2023-07-16T06:50:03;1999.90;;;999.90;;
19537;SDS011;9914;51.008;4.300;2023-07-16T06:52:29;1999.90;;;999.90;;
19537;SDS011;9914;51.008;4.300;2023-07-16T06:54:56;1999.90;;;999.90;;
19537;SDS011;9914;51.008;4.300;2023-07-16T06:57:22;1999.90;;;999.90;;
19537;SDS011;9914;51.008;4.300;2023-07-16T06:59:48;1999.90;;;999.90;;
19537;SDS011;9914;51.008;4.300;2023-07-16T07:02:15;1999.90;;;999.90;;
19537;SDS011;9914;51.008;4.300;2023-07-16T07:04:41;1999.90;;;999.90;;
19537;SDS011;9914;51.008;4.300;2023-07-16T07:07:07;1999.90;;;999.90;;
19537;SDS011;9914;51.008;4.300;2023-07-16T07:09:32;1999.90;;;999.90;;
19537;SDS011;9914;51.008;4.300;2023-07-16T07:11:58;1999.90;;;999.90;;
19537;SDS011;9914;51.008;4.300;2023-07-16T07:14:23;1999.90;;;999.90;;
19537;SDS011;9914;51.008;4.300;2023-07-16T07:16:49;1999.90;;;999.90;;
19537;SDS011;9914;51.008;4.300;2023-07-16T07:19:15;1999.90;;;999.90;;
19537;SDS011;9914;51.008;4.300;2023-07-16T07:21:40;1999.90;;;999.90;;
19537;SDS011;9914;51.008;4.300;2023-07-16T07:24:06;1999.90;;;999.90;;
19537;SDS011;9914;51.008;4.300;2023-07-16T07:26:31;1999.90;;;999.90;;
19537;SDS011;9914;51.008;4.300;2023-07-16T07:28:57;1999.90;;;999.90;;
19537;SDS011;9914;51.008;4.300;2023-07-16T07:31:23;1999.90;;;999.90;;
19537;SDS011;9914;51.008;4.300;2023-07-16T07:33:48;1999.90;;;999.90;;
19537;SDS011;9914;51.008;4.300;2023-07-16T07:36:14;1999.90;;;999.90;;
19537;SDS011;9914;51.008;4.300;2023-07-16T07:38:40;1999.90;;;999.90;;
19537;SDS011;9914;51.008;4.300;2023-07-16T07:41:05;1999.90;;;999.90;;
19537;SDS011;9914;51.008;4.300;2023-07-16T07:43:31;1999.90;;;999.90;;
19537;SDS011;9914;51.008;4.300;2023-07-16T07:45:57;1999.90;;;999.90;;
19537;SDS011;9914;51.008;4.300;2023-07-16T07:48:22;869.63;;;509.57;;
19537;SDS011;9914;51.008;4.300;2023-07-16T07:50:48;1999.90;;;999.90;;
19537;SDS011;9914;51.008;4.300;2023-07-16T07:53:14;1999.90;;;999.90;;
19537;SDS011;9914;51.008;4.300;2023-07-16T07:55:40;1999.90;;;999.90;;
19537;SDS011;9914;51.008;4.300;2023-07-16T07:58:07;1999.90;;;999.90;;
19537;SDS011;9914;51.008;4.300;2023-07-16T08:00:32;1999.90;;;999.90;;
19537;SDS011;9914;51.008;4.300;2023-07-16T08:02:58;1999.90;;;999.90;;
19537;SDS011;9914;51.008;4.300;2023-07-16T08:05:24;1999.90;;;999.90;;
19537;SDS011;9914;51.008;4.300;2023-07-16T08:07:49;1999.90;;;999.90;;
19537;SDS011;9914;51.008;4.300;2023-07-16T08:10:16;1999.90;;;999.90;;
19537;SDS011;9914;51.008;4.300;2023-07-16T08:12:42;1999.90;;;999.90;;
19537;SDS011;9914;51.008;4.300;2023-07-16T08:15:08;1999.90;;;999.90;;
19537;SDS011;9914;51.008;4.300;2023-07-16T08:17:39;1999.90;;;999.90;;
19537;SDS011;9914;51.008;4.300;2023-07-16T08:20:06;1999.90;;;999.90;;
19537;SDS011;9914;51.008;4.300;2023-07-16T08:22:32;1999.90;;;999.90;;
19537;SDS011;9914;51.008;4.300;2023-07-16T08:24:58;1999.90;;;999.90;;
19537;SDS011;9914;51.008;4.300;2023-07-16T08:27:23;1999.90;;;999.90;;
19537;SDS011;9914;51.008;4.300;2023-07-16T08:29:49;1999.90;;;999.90;;
19537;SDS011;9914;51.008;4.300;2023-07-16T08:32:14;1999.90;;;999.90;;
19537;SDS011;9914;51.008;4.300;2023-07-16T08:34:40;1999.90;;;999.90;;
19537;SDS011;9914;51.008;4.300;2023-07-16T08:37:06;1999.90;;;999.90;;
19537;SDS011;9914;51.008;4.300;2023-07-16T08:39:31;1999.90;;;999.90;;
19537;SDS011;9914;51.008;4.300;2023-07-16T08:41:57;1999.90;;;999.90;;
19537;SDS011;9914;51.008;4.300;2023-07-16T08:44:23;1999.90;;;999.90;;
19537;SDS011;9914;51.008;4.300;2023-07-16T08:46:49;1999.90;;;999.90;;
19537;SDS011;9914;51.008;4.300;2023-07-16T08:49:17;1999.90;;;999.90;;
19537;SDS011;9914;51.008;4.300;2023-07-16T08:51:45;1999.90;;;999.90;;
19537;SDS011;9914;51.008;4.300;2023-07-16T08:54:13;1999.90;;;999.90;;
19537;SDS011;9914;51.008;4.300;2023-07-16T08:56:42;1999.90;;;999.90;;
19537;SDS011;9914;51.008;4.300;2023-07-16T08:59:09;1999.90;;;999.90;;
19537;SDS011;9914;51.008;4.300;2023-07-16T09:01:35;1999.90;;;999.90;;
19537;SDS011;9914;51.008;4.300;2023-07-16T09:04:02;1999.90;;;999.90;;
19537;SDS011;9914;51.008;4.300;2023-07-16T09:06:28;1999.90;;;999.90;;
19537;SDS011;9914;51.008;4.300;2023-07-16T09:08:54;1999.90;;;999.90;;
19537;SDS011;9914;51.008;4.300;2023-07-16T09:11:20;1999.90;;;999.90;;
19537;SDS011;9914;51.008;4.300;2023-07-16T09:13:47;1999.90;;;999.90;;
19537;SDS011;9914;51.008;4.300;2023-07-16T09:16:13;1999.90;;;999.90;;
19537;SDS011;9914;51.008;4.300;2023-07-16T09:18:42;1999.90;;;999.90;;
19537;SDS011;9914;51.008;4.300;2023-07-16T09:21:08;1999.90;;;999.90;;
19537;SDS011;9914;51.008;4.300;2023-07-16T09:23:34;1999.90;;;999.90;;
19537;SDS011;9914;51.008;4.300;2023-07-16T09:26:00;1999.90;;;999.90;;
19537;SDS011;9914;51.008;4.300;2023-07-16T09:28:26;1999.90;;;999.90;;
19537;SDS011;9914;51.008;4.300;2023-07-16T09:30:52;1999.90;;;999.90;;
19537;SDS011;9914;51.008;4.300;2023-07-16T09:33:18;1999.90;;;999.90;;
19537;SDS011;9914;51.008;4.300;2023-07-16T09:35:47;1999.90;;;999.90;;
19537;SDS011;9914;51.008;4.300;2023-07-16T09:38:14;1999.90;;;999.90;;
19537;SDS011;9914;51.008;4.300;2023-07-16T09:40:41;1999.90;;;999.90;;
19537;SDS011;9914;51.008;4.300;2023-07-16T09:43:10;1999.90;;;999.90;;
19537;SDS011;9914;51.008;4.300;2023-07-16T09:45:37;1999.90;;;999.90;;
19537;SDS011;9914;51.008;4.300;2023-07-16T09:48:03;1999.90;;;999.90;;
19537;SDS011;9914;51.008;4.300;2023-07-16T09:50:30;1999.90;;;999.90;;
19537;SDS011;9914;51.008;4.300;2023-07-16T09:52:58;1999.90;;;999.90;;
19537;SDS011;9914;51.008;4.300;2023-07-16T09:55:24;1999.90;;;999.90;;
19537;SDS011;9914;51.008;4.300;2023-07-16T09:57:52;1999.90;;;999.90;;
19537;SDS011;9914;51.008;4.300;2023-07-16T10:00:19;1999.90;;;999.90;;
19537;SDS011;9914;51.008;4.300;2023-07-16T10:02:46;1999.90;;;999.90;;
19537;SDS011;9914;51.008;4.300;2023-07-16T10:05:16;1999.90;;;999.90;;
19537;SDS011;9914;51.008;4.300;2023-07-16T10:07:43;1999.90;;;999.90;;
19537;SDS011;9914;51.008;4.300;2023-07-16T10:10:16;1999.90;;;999.90;;
19537;SDS011;9914;51.008;4.300;2023-07-16T10:12:43;1999.90;;;999.90;;
19537;SDS011;9914;51.008;4.300;2023-07-16T10:15:24;1999.90;;;999.90;;
19537;SDS011;9914;51.008;4.300;2023-07-16T10:17:54;1999.90;;;999.90;;
19537;SDS011;9914;51.008;4.300;2023-07-16T10:20:28;1999.90;;;999.90;;
19537;SDS011;9914;51.008;4.300;2023-07-16T10:23:13;1999.90;;;999.90;;
19537;SDS011;9914;51.008;4.300;2023-07-16T10:26:02;1999.90;;;999.90;;
19537;SDS011;9914;51.008;4.300;2023-07-16T10:28:31;1999.90;;;999.90;;
19537;SDS011;9914;51.008;4.300;2023-07-16T10:30:58;1999.90;;;999.90;;
19537;SDS011;9914;51.008;4.300;2023-07-16T10:33:24;1999.90;;;999.90;;
19537;SDS011;9914;51.008;4.300;2023-07-16T10:35:49;1999.90;;;999.90;;
19537;SDS011;9914;51.008;4.300;2023-07-16T10:38:15;1999.90;;;999.90;;
19537;SDS011;9914;51.008;4.300;2023-07-16T10:40:41;1999.90;;;999.90;;
19537;SDS011;9914;51.008;4.300;2023-07-16T10:43:08;1999.90;;;999.90;;
19537;SDS011;9914;51.008;4.300;2023-07-16T10:45:34;1999.90;;;999.90;;
19537;SDS011;9914;51.008;4.300;2023-07-16T10:48:00;1999.90;;;999.90;;
19537;SDS011;9914;51.008;4.300;2023-07-16T10:50:26;1999.90;;;999.90;;
19537;SDS011;9914;51.008;4.300;2023-07-16T10:52:52;1999.90;;;999.90;;
19537;SDS011;9914;51.008;4.300;2023-07-16T10:55:21;1999.90;;;999.90;;
19537;SDS011;9914;51.008;4.300;2023-07-16T10:57:48;1999.90;;;999.90;;
19537;SDS011;9914;51.008;4.300;2023-07-16T11:00:15;1999.90;;;999.90;;
19537;SDS011;9914;51.008;4.300;2023-07-16T11:02:42;1605.80;;;923.20;;
19537;SDS011;9914;51.008;4.300;2023-07-16T11:05:11;1614.43;;;930.83;;
19537;SDS011;9914;51.008;4.300;2023-07-16T11:07:42;1999.90;;;999.90;;
19537;SDS011;9914;51.008;4.300;2023-07-16T11:10:08;1999.90;;;999.90;;
19537;SDS011;9914;51.008;4.300;2023-07-16T11:12:34;1999.90;;;999.90;;
19537;SDS011;9914;51.008;4.300;2023-07-16T11:15:00;1999.90;;;999.90;;
19537;SDS011;9914;51.008;4.300;2023-07-16T11:17:25;1999.90;;;999.90;;
19537;SDS011;9914;51.008;4.300;2023-07-16T11:19:52;1999.90;;;999.90;;
19537;SDS011;9914;51.008;4.300;2023-07-16T11:22:19;1999.90;;;999.90;;
19537;SDS011;9914;51.008;4.300;2023-07-16T11:24:45;1999.90;;;999.90;;
19537;SDS011;9914;51.008;4.300;2023-07-16T11:27:16;1999.90;;;999.90;;
19537;SDS011;9914;51.008;4.300;2023-07-16T11:29:46;1999.90;;;999.90;;
19537;SDS011;9914;51.008;4.300;2023-07-16T11:35:00;1999.90;;;999.90;;
19537;SDS011;9914;51.008;4.300;2023-07-16T11:37:27;1999.90;;;999.90;;
19537;SDS011;9914;51.008;4.300;2023-07-16T11:39:57;1999.90;;;999.90;;
19537;SDS011;9914;51.008;4.300;2023-07-16T11:42:27;1999.90;;;999.90;;
19537;SDS011;9914;51.008;4.300;2023-07-16T11:44:54;1999.90;;;999.90;;
19537;SDS011;9914;51.008;4.300;2023-07-16T11:47:20;1999.90;;;999.90;;
19537;SDS011;9914;51.008;4.300;2023-07-16T11:49:46;1999.90;;;999.90;;
19537;SDS011;9914;51.008;4.300;2023-07-16T11:52:12;1999.90;;;999.90;;
19537;SDS011;9914;51.008;4.300;2023-07-16T11:54:38;1999.90;;;999.90;;
19537;SDS011;9914;51.008;4.300;2023-07-16T11:57:04;1999.90;;;999.90;;
19537;SDS011;9914;51.008;4.300;2023-07-16T11:59:30;1999.90;;;999.90;;
19537;SDS011;9914;51.008;4.300;2023-07-16T12:01:55;1999.90;;;999.90;;
19537;SDS011;9914;51.008;4.300;2023-07-16T12:04:21;1999.90;;;999.90;;
19537;SDS011;9914;51.008;4.300;2023-07-16T12:06:46;1999.90;;;999.90;;
19537;SDS011;9914;51.008;4.300;2023-07-16T12:09:12;1999.90;;;999.90;;
19537;SDS011;9914;51.008;4.300;2023-07-16T12:11:38;1999.90;;;999.90;;
19537;SDS011;9914;51.008;4.300;2023-07-16T12:14:04;1999.90;;;999.90;;
19537;SDS011;9914;51.008;4.300;2023-07-16T12:16:31;1999.90;;;999.90;;
19537;SDS011;9914;51.008;4.300;2023-07-16T12:18:56;1999.90;;;999.90;;
19537;SDS011;9914;51.008;4.300;2023-07-16T12:21:22;1999.90;;;999.90;;
19537;SDS011;9914;51.008;4.300;2023-07-16T12:23:48;1999.90;;;999.90;;
19537;SDS011;9914;51.008;4.300;2023-07-16T12:26:13;1999.90;;;999.90;;
19537;SDS011;9914;51.008;4.300;2023-07-16T12:28:39;1999.90;;;999.90;;
19537;SDS011;9914;51.008;4.300;2023-07-16T12:31:05;1999.90;;;999.90;;
19537;SDS011;9914;51.008;4.300;2023-07-16T12:33:30;1999.90;;;999.90;;
19537;SDS011;9914;51.008;4.300;2023-07-16T12:35:56;1999.90;;;999.90;;
19537;SDS011;9914;51.008;4.300;2023-07-16T12:38:22;1999.90;;;999.90;;
19537;SDS011;9914;51.008;4.300;2023-07-16T12:40:47;1999.90;;;999.90;;
19537;SDS011;9914;51.008;4.300;2023-07-16T12:43:13;1999.90;;;999.90;;
19537;SDS011;9914;51.008;4.300;2023-07-16T12:45:39;1999.90;;;999.90;;
19537;SDS011;9914;51.008;4.300;2023-07-16T12:48:04;1999.90;;;999.90;;
19537;SDS011;9914;51.008;4.300;2023-07-16T12:50:30;1999.90;;;999.90;;
19537;SDS011;9914;51.008;4.300;2023-07-16T12:52:56;1999.90;;;999.90;;
19537;SDS011;9914;51.008;4.300;2023-07-16T12:55:22;1999.90;;;999.90;;
19537;SDS011;9914;51.008;4.300;2023-07-16T12:57:48;1999.90;;;999.90;;
19537;SDS011;9914;51.008;4.300;2023-07-16T13:00:14;1999.90;;;999.90;;
19537;SDS011;9914;51.008;4.300;2023-07-16T13:02:40;1999.90;;;999.90;;
19537;SDS011;9914;51.008;4.300;2023-07-16T13:05:06;1999.90;;;999.90;;
19537;SDS011;9914;51.008;4.300;2023-07-16T13:07:31;1999.90;;;999.90;;
19537;SDS011;9914;51.008;4.300;2023-07-16T13:09:58;1999.90;;;999.90;;
19537;SDS011;9914;51.008;4.300;2023-07-16T13:12:24;1999.90;;;999.90;;
19537;SDS011;9914;51.008;4.300;2023-07-16T13:14:49;1999.90;;;999.90;;
19537;SDS011;9914;51.008;4.300;2023-07-16T13:17:15;1999.90;;;999.90;;
19537;SDS011;9914;51.008;4.300;2023-07-16T13:19:42;1999.90;;;999.90;;
19537;SDS011;9914;51.008;4.300;2023-07-16T13:22:08;1999.90;;;999.90;;
19537;SDS011;9914;51.008;4.300;2023-07-16T13:24:34;1999.90;;;999.90;;
19537;SDS011;9914;51.008;4.300;2023-07-16T13:26:59;1999.90;;;999.90;;
19537;SDS011;9914;51.008;4.300;2023-07-16T13:29:25;1999.90;;;999.90;;
19537;SDS011;9914;51.008;4.300;2023-07-16T13:31:50;1999.90;;;999.90;;
19537;SDS011;9914;51.008;4.300;2023-07-16T13:34:16;1999.90;;;999.90;;
19537;SDS011;9914;51.008;4.300;2023-07-16T13:36:42;1999.90;;;999.90;;
19537;SDS011;9914;51.008;4.300;2023-07-16T13:39:07;1999.90;;;999.90;;
19537;SDS011;9914;51.008;4.300;2023-07-16T13:41:33;1999.90;;;999.90;;
19537;SDS011;9914;51.008;4.300;2023-07-16T13:43:59;1999.90;;;999.90;;
19537;SDS011;9914;51.008;4.300;2023-07-16T13:46:25;1999.90;;;999.90;;
19537;SDS011;9914;51.008;4.300;2023-07-16T13:48:51;1999.90;;;999.90;;
19537;SDS011;9914;51.008;4.300;2023-07-16T13:51:16;1999.90;;;999.90;;
19537;SDS011;9914;51.008;4.300;2023-07-16T13:53:42;1999.90;;;999.90;;
19537;SDS011;9914;51.008;4.300;2023-07-16T13:56:07;1999.90;;;999.90;;
19537;SDS011;9914;51.008;4.300;2023-07-16T13:58:33;1999.90;;;999.90;;
19537;SDS011;9914;51.008;4.300;2023-07-16T14:00:59;1999.90;;;999.90;;
19537;SDS011;9914;51.008;4.300;2023-07-16T14:03:25;1999.90;;;999.90;;
19537;SDS011;9914;51.008;4.300;2023-07-16T14:05:51;1999.90;;;999.90;;